sensor_id;sensor_type;location;lat;lon;timestamp;pressure;altitude;pressure_sealevel;temperature;humidity
78825;BME280;68176;45.554;10.220;2024-02-23T00:00:23;98534.38;;;12.29;62.98
78825;BME280;68176;45.554;10.220;2024-02-23T00:02:53;98531.75;;;12.29;63.35
78825;BME280;68176;45.554;10.220;2024-02-23T00:05:24;98529.13;;;12.29;63.08
78825;BME280;68176;45.554;10.220;2024-02-23T00:07:54;98511.72;;;12.28;63.00
78825;BME280;68176;45.554;10.220;2024-02-23T00:10:23;98502.84;;;12.29;63.08
78825;BME280;68176;45.554;10.220;2024-02-23T00:12:54;98505.00;;;12.25;63.21
78825;BME280;68176;45.554;10.220;2024-02-23T00:15:23;98495.28;;;12.26;63.05
78825;BME280;68176;45.554;10.220;2024-02-23T00:17:54;98493.66;;;12.25;62.84
78825;BME280;68176;45.554;10.220;2024-02-23T00:20:23;98485.78;;;12.25;63.24
78825;BME280;68176;45.554;10.220;2024-02-23T00:22:54;98466.72;;;12.23;63.15
78825;BME280;68176;45.554;10.220;2024-02-23T00:25:24;98484.13;;;12.24;62.95
78825;BME280;68176;45.554;10.220;2024-02-23T00:27:54;98489.03;;;12.27;63.03
78825;BME280;68176;45.554;10.220;2024-02-23T00:30:24;98483.78;;;12.27;63.02
78825;BME280;68176;45.554;10.220;2024-02-23T00:32:54;98475.44;;;12.23;62.97
78825;BME280;68176;45.554;10.220;2024-02-23T00:35:24;98467.38;;;12.25;63.19
78825;BME280;68176;45.554;10.220;2024-02-23T00:37:54;98461.94;;;12.26;63.41
78825;BME280;68176;45.554;10.220;2024-02-23T00:40:24;98459.50;;;12.25;63.27
78825;BME280;68176;45.554;10.220;2024-02-23T00:42:54;98447.97;;;12.26;63.19
78825;BME280;68176;45.554;10.220;2024-02-23T00:45:24;98440.09;;;12.26;63.34
78825;BME280;68176;45.554;10.220;2024-02-23T00:47:54;98447.34;;;12.24;63.15
78825;BME280;68176;45.554;10.220;2024-02-23T00:50:24;98439.81;;;12.21;63.22
78825;BME280;68176;45.554;10.220;2024-02-23T00:52:54;98418.63;;;12.22;63.27
78825;BME280;68176;45.554;10.220;2024-02-23T00:55:24;98410.06;;;12.20;63.34
78825;BME280;68176;45.554;10.220;2024-02-23T00:57:54;98403.66;;;12.23;63.36
78825;BME280;68176;45.554;10.220;2024-02-23T01:00:24;98419.41;;;12.23;63.19
78825;BME280;68176;45.554;10.220;2024-02-23T01:02:54;98416.16;;;12.21;63.02
78825;BME280;68176;45.554;10.220;2024-02-23T01:05:24;98412.53;;;12.22;63.01
78825;BME280;68176;45.554;10.220;2024-02-23T01:07:54;98413.72;;;12.19;63.25
78825;BME280;68176;45.554;10.220;2024-02-23T01:10:24;98411.72;;;12.21;63.28
78825;BME280;68176;45.554;10.220;2024-02-23T01:12:54;98393.50;;;12.20;63.14
78825;BME280;68176;45.554;10.220;2024-02-23T01:15:24;98391.88;;;12.19;63.28
78825;BME280;68176;45.554;10.220;2024-02-23T01:17:54;98372.66;;;12.18;63.33
78825;BME280;68176;45.554;10.220;2024-02-23T01:20:24;98373.66;;;12.17;63.14
78825;BME280;68176;45.554;10.220;2024-02-23T01:22:54;98366.78;;;12.16;63.28
78825;BME280;68176;45.554;10.220;2024-02-23T01:25:24;98362.31;;;12.17;63.23
78825;BME280;68176;45.554;10.220;2024-02-23T01:27:54;98352.63;;;12.17;63.04
78825;BME280;68176;45.554;10.220;2024-02-23T01:30:24;98343.91;;;12.17;63.29
78825;BME280;68176;45.554;10.220;2024-02-23T01:32:54;98336.03;;;12.17;63.09
78825;BME280;68176;45.554;10.220;2024-02-23T01:35:24;98310.94;;;12.14;63.20
78825;BME280;68176;45.554;10.220;2024-02-23T01:37:54;98323.09;;;12.15;62.99
78825;BME280;68176;45.554;10.220;2024-02-23T01:40:24;98309.94;;;12.15;63.08
78825;BME280;68176;45.554;10.220;2024-02-23T01:43:04;98310.75;;;12.16;63.24
78825;BME280;68176;45.554;10.220;2024-02-23T01:45:31;98313.75;;;12.13;63.40
78825;BME280;68176;45.554;10.220;2024-02-23T01:47:57;98309.28;;;12.13;63.22
78825;BME280;68176;45.554;10.220;2024-02-23T01:50:25;98301.25;;;12.15;63.26
78825;BME280;68176;45.554;10.220;2024-02-23T01:52:56;98297.78;;;12.14;63.25
78825;BME280;68176;45.554;10.220;2024-02-23T01:55:25;98289.09;;;12.14;63.11
78825;BME280;68176;45.554;10.220;2024-02-23T01:57:54;98278.56;;;12.14;63.25
78825;BME280;68176;45.554;10.220;2024-02-23T02:00:24;98280.38;;;12.13;63.19
78825;BME280;68176;45.554;10.220;2024-02-23T02:02:54;98270.06;;;12.12;63.42
78825;BME280;68176;45.554;10.220;2024-02-23T02:05:27;98268.41;;;12.11;63.16
78825;BME280;68176;45.554;10.220;2024-02-23T02:07:55;98262.81;;;12.14;63.10
78825;BME280;68176;45.554;10.220;2024-02-23T02:10:25;98253.69;;;12.10;63.11
78825;BME280;68176;45.554;10.220;2024-02-23T02:12:54;98252.66;;;12.11;63.07
78825;BME280;68176;45.554;10.220;2024-02-23T02:15:24;98257.91;;;12.11;63.27
78825;BME280;68176;45.554;10.220;2024-02-23T02:17:54;98263.63;;;12.14;63.01
78825;BME280;68176;45.554;10.220;2024-02-23T02:20:25;98250.69;;;12.13;63.33
78825;BME280;68176;45.554;10.220;2024-02-23T02:22:54;98245.44;;;12.13;63.16
78825;BME280;68176;45.554;10.220;2024-02-23T02:25:24;98224.78;;;12.10;63.07
78825;BME280;68176;45.554;10.220;2024-02-23T02:27:54;98216.88;;;12.10;63.18
78825;BME280;68176;45.554;10.220;2024-02-23T02:30:24;98209.00;;;12.10;63.27
78825;BME280;68176;45.554;10.220;2024-02-23T02:32:54;98205.34;;;12.11;63.32
78825;BME280;68176;45.554;10.220;2024-02-23T02:35:24;98192.59;;;12.08;62.97
78825;BME280;68176;45.554;10.220;2024-02-23T02:37:54;98192.22;;;12.11;63.33
78825;BME280;68176;45.554;10.220;2024-02-23T02:40:24;98186.97;;;12.11;63.42
78825;BME280;68176;45.554;10.220;2024-02-23T02:42:54;98186.81;;;12.12;63.15
78825;BME280;68176;45.554;10.220;2024-02-23T02:45:24;98184.34;;;12.11;63.20
78825;BME280;68176;45.554;10.220;2024-02-23T02:47:54;98191.22;;;12.12;63.30
78825;BME280;68176;45.554;10.220;2024-02-23T02:50:24;98170.59;;;12.09;63.14
78825;BME280;68176;45.554;10.220;2024-02-23T02:52:54;98164.97;;;12.12;63.12
78825;BME280;68176;45.554;10.220;2024-02-23T02:55:24;98156.44;;;12.10;63.26
78825;BME280;68176;45.554;10.220;2024-02-23T02:57:54;98160.06;;;12.09;63.31
78825;BME280;68176;45.554;10.220;2024-02-23T03:00:24;98159.69;;;12.12;63.14
78825;BME280;68176;45.554;10.220;2024-02-23T03:02:55;98159.69;;;12.12;63.31
78825;BME280;68176;45.554;10.220;2024-02-23T03:05:24;98165.31;;;12.09;63.26
78825;BME280;68176;45.554;10.220;2024-02-23T03:07:54;98164.13;;;12.11;63.16
78825;BME280;68176;45.554;10.220;2024-02-23T03:10:24;98156.25;;;12.11;63.02
78825;BME280;68176;45.554;10.220;2024-02-23T03:12:55;98148.38;;;12.11;63.48
78825;BME280;68176;45.554;10.220;2024-02-23T03:15:25;98147.91;;;12.08;63.27
78825;BME280;68176;45.554;10.220;2024-02-23T03:17:55;98154.44;;;12.12;63.20
78825;BME280;68176;45.554;10.220;2024-02-23T03:20:24;98137.03;;;12.11;63.21
78825;BME280;68176;45.554;10.220;2024-02-23T03:22:54;98135.44;;;12.10;63.81
78825;BME280;68176;45.554;10.220;2024-02-23T03:25:25;98132.16;;;12.08;63.09
78825;BME280;68176;45.554;10.220;2024-02-23T03:27:55;98134.25;;;12.12;63.44
78825;BME280;68176;45.554;10.220;2024-02-23T03:30:24;98107.69;;;12.07;63.54
78825;BME280;68176;45.554;10.220;2024-02-23T03:32:55;98113.59;;;12.09;63.33
78825;BME280;68176;45.554;10.220;2024-02-23T03:35:25;98109.16;;;12.10;63.48
78825;BME280;68176;45.554;10.220;2024-02-23T03:37:55;98104.88;;;12.09;63.33
78825;BME280;68176;45.554;10.220;2024-02-23T03:40:25;98099.00;;;12.07;63.28
78825;BME280;68176;45.554;10.220;2024-02-23T03:42:54;98097.00;;;12.09;63.38
78825;BME280;68176;45.554;10.220;2024-02-23T03:45:25;98084.84;;;12.08;63.16
78825;BME280;68176;45.554;10.220;2024-02-23T03:47:54;98085.22;;;12.05;63.31
78825;BME280;68176;45.554;10.220;2024-02-23T03:50:25;98079.59;;;12.08;63.44
78825;BME280;68176;45.554;10.220;2024-02-23T03:52:54;98076.16;;;12.07;63.43
78825;BME280;68176;45.554;10.220;2024-02-23T03:55:25;98065.22;;;12.04;63.34
78825;BME280;68176;45.554;10.220;2024-02-23T03:57:55;98050.09;;;12.06;63.57
78825;BME280;68176;45.554;10.220;2024-02-23T04:00:25;98054.72;;;12.04;63.38
78825;BME280;68176;45.554;10.220;2024-02-23T04:02:55;98049.88;;;12.07;63.25
78825;BME280;68176;45.554;10.220;2024-02-23T04:05:25;98038.75;;;12.05;63.13
78825;BME280;68176;45.554;10.220;2024-02-23T04:07:55;98035.69;;;12.02;63.36
78825;BME280;68176;45.554;10.220;2024-02-23T04:10:25;98040.56;;;12.05;63.64
78825;BME280;68176;45.554;10.220;2024-02-23T04:12:55;98045.66;;;12.06;63.39
78825;BME280;68176;45.554;10.220;2024-02-23T04:15:25;98055.34;;;12.06;63.47
78825;BME280;68176;45.554;10.220;2024-02-23T04:17:55;98055.34;;;12.06;63.27
78825;BME280;68176;45.554;10.220;2024-02-23T04:20:25;98051.91;;;12.05;63.68
78825;BME280;68176;45.554;10.220;2024-02-23T04:22:55;98057.34;;;12.04;63.17
78825;BME280;68176;45.554;10.220;2024-02-23T04:25:25;98069.47;;;12.05;63.41
78825;BME280;68176;45.554;10.220;2024-02-23T04:27:55;98069.47;;;12.05;63.11
78825;BME280;68176;45.554;10.220;2024-02-23T04:30:25;98062.22;;;12.07;62.99
78825;BME280;68176;45.554;10.220;2024-02-23T04:32:55;98063.22;;;12.06;63.13
78825;BME280;68176;45.554;10.220;2024-02-23T04:35:25;98058.97;;;12.05;63.06
78825;BME280;68176;45.554;10.220;2024-02-23T04:37:55;98074.56;;;12.06;63.44
78825;BME280;68176;45.554;10.220;2024-02-23T04:40:25;98072.75;;;12.07;63.07
78825;BME280;68176;45.554;10.220;2024-02-23T04:42:55;98076.34;;;12.06;63.19
78825;BME280;68176;45.554;10.220;2024-02-23T04:45:25;98085.06;;;12.06;63.10
78825;BME280;68176;45.554;10.220;2024-02-23T04:47:55;98084.25;;;12.06;63.24
78825;BME280;68176;45.554;10.220;2024-02-23T04:50:25;98099.19;;;12.05;63.31
78825;BME280;68176;45.554;10.220;2024-02-23T04:52:55;98102.63;;;12.06;63.43
78825;BME280;68176;45.554;10.220;2024-02-23T04:55:25;98095.75;;;12.05;63.10
78825;BME280;68176;45.554;10.220;2024-02-23T04:57:55;98088.06;;;12.03;63.10
78825;BME280;68176;45.554;10.220;2024-02-23T05:00:25;98097.38;;;12.06;63.23
78825;BME280;68176;45.554;10.220;2024-02-23T05:02:57;98099.38;;;12.04;63.26
78825;BME280;68176;45.554;10.220;2024-02-23T05:05:25;98089.66;;;12.04;63.12
78825;BME280;68176;45.554;10.220;2024-02-23T05:07:55;98089.22;;;12.01;63.16
78825;BME280;68176;45.554;10.220;2024-02-23T05:10:25;98081.97;;;12.03;63.32
78825;BME280;68176;45.554;10.220;2024-02-23T05:12:55;98072.47;;;12.02;63.21
78825;BME280;68176;45.554;10.220;2024-02-23T05:15:25;98081.97;;;12.03;63.10
78825;BME280;68176;45.554;10.220;2024-02-23T05:17:55;98070.22;;;11.99;63.13
78825;BME280;68176;45.554;10.220;2024-02-23T05:20:25;98069.84;;;12.02;63.23
78825;BME280;68176;45.554;10.220;2024-02-23T05:22:55;98071.47;;;12.03;63.31
78825;BME280;68176;45.554;10.220;2024-02-23T05:25:25;98067.03;;;12.03;63.26
78825;BME280;68176;45.554;10.220;2024-02-23T05:27:55;98074.63;;;11.98;63.21
78825;BME280;68176;45.554;10.220;2024-02-23T05:30:25;98080.19;;;12.03;63.23
78825;BME280;68176;45.554;10.220;2024-02-23T05:32:55;98060.50;;;11.99;63.09
78825;BME280;68176;45.554;10.220;2024-02-23T05:35:25;98052.44;;;12.01;62.95
78825;BME280;68176;45.554;10.220;2024-02-23T05:37:55;98056.69;;;12.02;63.09
78825;BME280;68176;45.554;10.220;2024-02-23T05:40:25;98044.56;;;12.01;63.23
78825;BME280;68176;45.554;10.220;2024-02-23T05:42:55;98054.06;;;12.02;63.31
78825;BME280;68176;45.554;10.220;2024-02-23T05:45:25;98053.25;;;12.01;63.13
78825;BME280;68176;45.554;10.220;2024-02-23T05:47:55;98062.16;;;12.00;63.14
78825;BME280;68176;45.554;10.220;2024-02-23T05:50:25;98056.09;;;12.00;63.11
78825;BME280;68176;45.554;10.220;2024-02-23T05:52:55;98053.91;;;12.03;63.22
78825;BME280;68176;45.554;10.220;2024-02-23T05:55:25;98059.31;;;12.02;63.36
78825;BME280;68176;45.554;10.220;2024-02-23T05:57:55;98051.81;;;11.99;63.17
78825;BME280;68176;45.554;10.220;2024-02-23T06:00:25;98050.81;;;12.00;63.39
78825;BME280;68176;45.554;10.220;2024-02-23T06:02:55;98054.66;;;11.97;63.25
78825;BME280;68176;45.554;10.220;2024-02-23T06:05:25;98063.75;;;12.01;63.39
78825;BME280;68176;45.554;10.220;2024-02-23T06:07:55;98051.81;;;11.99;63.35
78825;BME280;68176;45.554;10.220;2024-02-23T06:10:25;98051.81;;;11.99;63.40
78825;BME280;68176;45.554;10.220;2024-02-23T06:12:55;98038.69;;;11.99;63.37
78825;BME280;68176;45.554;10.220;2024-02-23T06:15:25;98041.94;;;12.01;63.39
78825;BME280;68176;45.554;10.220;2024-02-23T06:17:55;98035.22;;;11.98;63.32
78825;BME280;68176;45.554;10.220;2024-02-23T06:20:26;98040.31;;;12.00;63.31
78825;BME280;68176;45.554;10.220;2024-02-23T06:22:56;98034.25;;;11.99;63.17
78825;BME280;68176;45.554;10.220;2024-02-23T06:25:25;98040.94;;;12.02;63.33
78825;BME280;68176;45.554;10.220;2024-02-23T06:27:55;98035.06;;;12.00;62.87
78825;BME280;68176;45.554;10.220;2024-02-23T06:30:25;98024.56;;;12.00;63.04
78825;BME280;68176;45.554;10.220;2024-02-23T06:32:55;98018.03;;;11.96;63.28
78825;BME280;68176;45.554;10.220;2024-02-23T06:35:26;98014.41;;;11.97;63.15
78825;BME280;68176;45.554;10.220;2024-02-23T06:37:55;98015.25;;;11.97;62.92
78825;BME280;68176;45.554;10.220;2024-02-23T06:40:25;98003.91;;;11.97;63.17
78825;BME280;68176;45.554;10.220;2024-02-23T06:42:55;97991.78;;;11.96;63.15
78825;BME280;68176;45.554;10.220;2024-02-23T06:45:25;98020.91;;;12.01;63.40
78825;BME280;68176;45.554;10.220;2024-02-23T06:47:55;98012.41;;;11.99;63.21
78825;BME280;68176;45.554;10.220;2024-02-23T06:50:25;98009.97;;;11.97;63.22
78825;BME280;68176;45.554;10.220;2024-02-23T06:52:55;97993.03;;;12.00;63.12
78825;BME280;68176;45.554;10.220;2024-02-23T06:55:25;98001.91;;;11.99;63.49
78825;BME280;68176;45.554;10.220;2024-02-23T06:57:56;97995.66;;;12.00;63.04
78825;BME280;68176;45.554;10.220;2024-02-23T07:00:25;97990.13;;;11.95;63.24
78825;BME280;68176;45.554;10.220;2024-02-23T07:02:55;97983.28;;;11.94;63.09
78825;BME280;68176;45.554;10.220;2024-02-23T07:05:25;97975.63;;;11.99;63.10
78825;BME280;68176;45.554;10.220;2024-02-23T07:07:55;97978.47;;;11.97;63.30
78825;BME280;68176;45.554;10.220;2024-02-23T07:10:26;97969.94;;;11.95;63.44
78825;BME280;68176;45.554;10.220;2024-02-23T07:12:56;97976.00;;;11.96;63.25
78825;BME280;68176;45.554;10.220;2024-02-23T07:15:26;97988.53;;;11.94;63.14
78825;BME280;68176;45.554;10.220;2024-02-23T07:17:56;97998.28;;;12.00;63.10
78825;BME280;68176;45.554;10.220;2024-02-23T07:20:26;98001.28;;;11.97;63.19
78825;BME280;68176;45.554;10.220;2024-02-23T07:22:56;97996.66;;;11.99;63.15
78825;BME280;68176;45.554;10.220;2024-02-23T07:25:26;97993.41;;;11.97;63.05
78825;BME280;68176;45.554;10.220;2024-02-23T07:27:56;97997.84;;;11.96;63.13
78825;BME280;68176;45.554;10.220;2024-02-23T07:30:26;98003.91;;;11.97;63.32
78825;BME280;68176;45.554;10.220;2024-02-23T07:32:56;98013.41;;;11.98;63.29
78825;BME280;68176;45.554;10.220;2024-02-23T07:35:27;98020.28;;;11.99;63.02
78825;BME280;68176;45.554;10.220;2024-02-23T07:37:56;98029.81;;;12.00;63.18
78825;BME280;68176;45.554;10.220;2024-02-23T07:40:26;98022.91;;;11.99;63.12
78825;BME280;68176;45.554;10.220;2024-02-23T07:42:56;98043.94;;;11.99;63.04
78825;BME280;68176;45.554;10.220;2024-02-23T07:45:26;98040.69;;;11.97;63.03
78825;BME280;68176;45.554;10.220;2024-02-23T07:47:56;98044.75;;;11.99;63.31
78825;BME280;68176;45.554;10.220;2024-02-23T07:50:26;98044.91;;;11.98;63.21
78825;BME280;68176;45.554;10.220;2024-02-23T07:52:56;98047.56;;;11.98;62.99
78825;BME280;68176;45.554;10.220;2024-02-23T07:55:26;98048.13;;;11.93;63.08
78825;BME280;68176;45.554;10.220;2024-02-23T07:57:56;98051.56;;;11.94;63.17
78825;BME280;68176;45.554;10.220;2024-02-23T08:00:26;98045.13;;;11.96;63.01
78825;BME280;68176;45.554;10.220;2024-02-23T08:02:56;98042.66;;;11.95;63.08
78825;BME280;68176;45.554;10.220;2024-02-23T08:05:26;98030.56;;;11.94;63.18
78825;BME280;68176;45.554;10.220;2024-02-23T08:07:56;98019.41;;;11.92;63.29
78825;BME280;68176;45.554;10.220;2024-02-23T08:10:26;98021.56;;;11.88;63.17
78825;BME280;68176;45.554;10.220;2024-02-23T08:12:56;98049.56;;;11.96;63.01
78825;BME280;68176;45.554;10.220;2024-02-23T08:15:26;98053.00;;;11.96;63.32
78825;BME280;68176;45.554;10.220;2024-02-23T08:17:56;98060.69;;;11.98;63.24
78825;BME280;68176;45.554;10.220;2024-02-23T08:20:26;98066.97;;;11.97;63.21
78825;BME280;68176;45.554;10.220;2024-02-23T08:22:56;98064.50;;;11.95;63.22
78825;BME280;68176;45.554;10.220;2024-02-23T08:25:26;98054.19;;;11.94;63.15
78825;BME280;68176;45.554;10.220;2024-02-23T08:27:56;98041.88;;;11.80;67.29
78825;BME280;68176;45.554;10.220;2024-02-23T08:30:26;98044.88;;;11.76;67.97
78825;BME280;68176;45.554;10.220;2024-02-23T08:32:56;98035.81;;;11.64;70.45
78825;BME280;68176;45.554;10.220;2024-02-23T08:35:26;98039.34;;;11.57;70.92
78825;BME280;68176;45.554;10.220;2024-02-23T08:37:56;98038.19;;;11.59;69.76
78825;BME280;68176;45.554;10.220;2024-02-23T08:40:26;98045.63;;;11.70;69.25
78825;BME280;68176;45.554;10.220;2024-02-23T08:42:56;98030.13;;;11.75;68.19
78825;BME280;68176;45.554;10.220;2024-02-23T08:45:26;98037.47;;;11.80;67.83
78825;BME280;68176;45.554;10.220;2024-02-23T08:47:56;98030.19;;;11.82;67.69
78825;BME280;68176;45.554;10.220;2024-02-23T08:50:26;98033.03;;;11.81;67.47
78825;BME280;68176;45.554;10.220;2024-02-23T08:52:56;98030.84;;;11.84;67.18
78825;BME280;68176;45.554;10.220;2024-02-23T08:55:26;98031.47;;;11.86;67.32
78825;BME280;68176;45.554;10.220;2024-02-23T08:57:56;98034.91;;;11.87;66.90
78825;BME280;68176;45.554;10.220;2024-02-23T09:00:26;98043.41;;;11.89;66.50
78825;BME280;68176;45.554;10.220;2024-02-23T09:02:56;98040.16;;;11.87;66.47
78825;BME280;68176;45.554;10.220;2024-02-23T09:05:26;98037.16;;;11.90;66.59
78825;BME280;68176;45.554;10.220;2024-02-23T09:07:56;98034.09;;;11.86;66.48
78825;BME280;68176;45.554;10.220;2024-02-23T09:10:26;98045.41;;;11.87;66.32
78825;BME280;68176;45.554;10.220;2024-02-23T09:12:56;98056.16;;;11.92;66.18
78825;BME280;68176;45.554;10.220;2024-02-23T09:15:26;98041.81;;;11.88;66.25
78825;BME280;68176;45.554;10.220;2024-02-23T09:17:56;98058.81;;;11.92;65.98
78825;BME280;68176;45.554;10.220;2024-02-23T09:20:26;98058.00;;;11.91;65.70
78825;BME280;68176;45.554;10.220;2024-02-23T09:22:56;98049.03;;;11.86;66.06
78825;BME280;68176;45.554;10.220;2024-02-23T09:25:26;98062.06;;;11.94;65.61
78825;BME280;68176;45.554;10.220;2024-02-23T09:27:56;98070.31;;;11.91;65.74
78825;BME280;68176;45.554;10.220;2024-02-23T09:30:26;98073.13;;;11.89;65.78
78825;BME280;68176;45.554;10.220;2024-02-23T09:32:56;98081.44;;;11.93;65.69
78825;BME280;68176;45.554;10.220;2024-02-23T09:35:26;98090.16;;;11.93;65.43
78825;BME280;68176;45.554;10.220;2024-02-23T09:37:56;98082.44;;;11.92;65.32
78825;BME280;68176;45.554;10.220;2024-02-23T09:40:26;98079.44;;;11.95;65.46
78825;BME280;68176;45.554;10.220;2024-02-23T09:42:57;98077.03;;;11.93;65.33
78825;BME280;68176;45.554;10.220;2024-02-23T09:45:26;98065.25;;;11.89;65.22
78825;BME280;68176;45.554;10.220;2024-02-23T09:47:57;98079.44;;;11.95;65.28
78825;BME280;68176;45.554;10.220;2024-02-23T09:50:28;98084.69;;;11.95;65.20
78825;BME280;68176;45.554;10.220;2024-02-23T09:52:58;98083.47;;;11.91;64.91
78825;BME280;68176;45.554;10.220;2024-02-23T09:55:26;98089.34;;;11.93;65.12
78825;BME280;68176;45.554;10.220;2024-02-23T09:57:57;98098.47;;;11.97;65.06
78825;BME280;68176;45.554;10.220;2024-02-23T10:00:27;98098.19;;;11.92;65.06
78825;BME280;68176;45.554;10.220;2024-02-23T10:02:57;98094.84;;;11.98;64.87
78825;BME280;68176;45.554;10.220;2024-02-23T10:05:30;98086.97;;;11.98;65.05
78825;BME280;68176;45.554;10.220;2024-02-23T10:07:56;98086.72;;;11.93;64.72
78825;BME280;68176;45.554;10.220;2024-02-23T10:10:32;98100.09;;;11.98;65.13
78825;BME280;68176;45.554;10.220;2024-02-23T10:12:57;98090.59;;;11.97;64.84
78825;BME280;68176;45.554;10.220;2024-02-23T10:15:29;98087.31;;;11.95;64.81
78825;BME280;68176;45.554;10.220;2024-02-23T10:17:56;98082.28;;;11.93;64.90
78825;BME280;68176;45.554;10.220;2024-02-23T10:20:26;98084.44;;;11.90;64.77
78825;BME280;68176;45.554;10.220;2024-02-23T10:22:56;98095.22;;;11.95;64.73
78825;BME280;68176;45.554;10.220;2024-02-23T10:25:27;98098.03;;;11.93;64.67
78825;BME280;68176;45.554;10.220;2024-02-23T10:27:57;98090.31;;;11.92;64.91
78825;BME280;68176;45.554;10.220;2024-02-23T10:30:27;98102.09;;;11.96;64.76
78825;BME280;68176;45.554;10.220;2024-02-23T10:32:58;98096.22;;;11.94;65.09
78825;BME280;68176;45.554;10.220;2024-02-23T10:35:26;98084.44;;;11.90;65.04
78825;BME280;68176;45.554;10.220;2024-02-23T10:37:56;98094.41;;;11.94;64.89
78825;BME280;68176;45.554;10.220;2024-02-23T10:40:27;98094.59;;;11.93;64.82
78825;BME280;68176;45.554;10.220;2024-02-23T10:43:00;98093.97;;;11.91;64.86
78825;BME280;68176;45.554;10.220;2024-02-23T10:45:28;98101.84;;;11.91;64.84
78825;BME280;68176;45.554;10.220;2024-02-23T10:47:57;98097.56;;;11.90;64.71
78825;BME280;68176;45.554;10.220;2024-02-23T10:50:27;98103.28;;;11.93;64.82
78825;BME280;68176;45.554;10.220;2024-02-23T10:52:56;98100.81;;;11.92;64.85
78825;BME280;68176;45.554;10.220;2024-02-23T10:55:28;98091.13;;;11.92;64.59
78825;BME280;68176;45.554;10.220;2024-02-23T10:57:58;98094.59;;;11.93;64.91
78825;BME280;68176;45.554;10.220;2024-02-23T11:00:27;98094.94;;;11.90;64.71
78825;BME280;68176;45.554;10.220;2024-02-23T11:02:57;98095.41;;;11.93;64.77
78825;BME280;68176;45.554;10.220;2024-02-23T11:05:27;98095.56;;;11.92;64.74
78825;BME280;68176;45.554;10.220;2024-02-23T11:07:57;98089.53;;;11.91;64.70
78825;BME280;68176;45.554;10.220;2024-02-23T11:10:27;98094.34;;;11.88;64.56
78825;BME280;68176;45.554;10.220;2024-02-23T11:12:58;98103.09;;;11.95;64.49
78825;BME280;68176;45.554;10.220;2024-02-23T11:15:28;98098.03;;;11.93;64.80
78825;BME280;68176;45.554;10.220;2024-02-23T11:17:57;98098.84;;;11.94;64.64
78825;BME280;68176;45.554;10.220;2024-02-23T11:20:34;98102.09;;;11.96;64.59
78825;BME280;68176;45.554;10.220;2024-02-23T11:22:59;98098.03;;;11.93;64.73
78825;BME280;68176;45.554;10.220;2024-02-23T11:25:27;98090.97;;;11.94;64.51
78825;BME280;68176;45.554;10.220;2024-02-23T11:27:57;98078.72;;;12.01;64.47
78825;BME280;68176;45.554;10.220;2024-02-23T11:30:27;98066.50;;;11.93;67.46
78825;BME280;68176;45.554;10.220;2024-02-23T11:32:59;98070.03;;;11.86;69.26
78825;BME280;68176;45.554;10.220;2024-02-23T11:35:27;98063.72;;;11.80;70.53
78825;BME280;68176;45.554;10.220;2024-02-23T11:37:57;98064.63;;;11.72;72.20
78825;BME280;68176;45.554;10.220;2024-02-23T11:40:28;98065.59;;;11.57;71.45
78825;BME280;68176;45.554;10.220;2024-02-23T11:42:57;98056.28;;;11.54;70.08
78825;BME280;68176;45.554;10.220;2024-02-23T11:45:30;98050.31;;;11.31;71.39
78825;BME280;68176;45.554;10.220;2024-02-23T11:47:57;98026.59;;;11.10;71.04
78825;BME280;68176;45.554;10.220;2024-02-23T11:50:27;98035.09;;;11.12;71.46
78825;BME280;68176;45.554;10.220;2024-02-23T11:52:57;98044.44;;;11.14;71.04
78825;BME280;68176;45.554;10.220;2024-02-23T11:55:28;98048.28;;;11.04;71.41
78825;BME280;68176;45.554;10.220;2024-02-23T11:57:57;98038.97;;;11.16;70.64
78825;BME280;68176;45.554;10.220;2024-02-23T12:00:27;98028.78;;;11.21;70.82
78825;BME280;68176;45.554;10.220;2024-02-23T12:02:57;98029.94;;;11.33;69.44
78825;BME280;68176;45.554;10.220;2024-02-23T12:05:27;98031.22;;;11.22;70.29
78825;BME280;68176;45.554;10.220;2024-02-23T12:07:57;98042.25;;;11.18;70.05
78825;BME280;68176;45.554;10.220;2024-02-23T12:10:27;98048.13;;;11.20;69.95
78825;BME280;68176;45.554;10.220;2024-02-23T12:12:57;98047.22;;;11.13;70.75
78825;BME280;68176;45.554;10.220;2024-02-23T12:15:27;98045.03;;;11.02;70.53
78825;BME280;68176;45.554;10.220;2024-02-23T12:18:00;98045.03;;;11.02;70.70
78825;BME280;68176;45.554;10.220;2024-02-23T12:20:28;98058.31;;;11.00;71.29
78825;BME280;68176;45.554;10.220;2024-02-23T12:22:57;98054.59;;;10.95;70.85
78825;BME280;68176;45.554;10.220;2024-02-23T12:25:27;98051.28;;;11.01;70.45
78825;BME280;68176;45.554;10.220;2024-02-23T12:27:57;98049.94;;;11.05;71.02
78825;BME280;68176;45.554;10.220;2024-02-23T12:30:27;98042.78;;;10.99;72.54
78825;BME280;68176;45.554;10.220;2024-02-23T12:33:05;98041.06;;;11.06;72.62
78825;BME280;68176;45.554;10.220;2024-02-23T12:35:33;98052.06;;;10.87;73.67
78825;BME280;68176;45.554;10.220;2024-02-23T12:37:59;98050.28;;;11.02;73.18
78825;BME280;68176;45.554;10.220;2024-02-23T12:40:27;98069.63;;;11.01;73.88
78825;BME280;68176;45.554;10.220;2024-02-23T12:42:57;98074.59;;;10.96;73.70
78825;BME280;68176;45.554;10.220;2024-02-23T12:45:27;98055.19;;;11.05;73.74
78825;BME280;68176;45.554;10.220;2024-02-23T12:47:57;98047.56;;;11.10;73.42
78825;BME280;68176;45.554;10.220;2024-02-23T12:50:29;98045.59;;;11.12;73.22
78825;BME280;68176;45.554;10.220;2024-02-23T12:52:57;98034.56;;;11.02;74.42
78825;BME280;68176;45.554;10.220;2024-02-23T12:55:27;98040.53;;;11.10;74.21
78825;BME280;68176;45.554;10.220;2024-02-23T12:57:57;98040.50;;;10.96;75.08
78825;BME280;68176;45.554;10.220;2024-02-23T13:00:27;98025.25;;;10.99;75.11
78825;BME280;68176;45.554;10.220;2024-02-23T13:02:57;98032.34;;;10.91;75.27